sensor_id;sensor_type;location;lat;lon;timestamp;pressure;altitude;pressure_sealevel;temperature;humidity
5753;BME280;2901;42.140;24.760;2023-04-30T00:01:38;99159.28;;;15.31;80.29
5753;BME280;2901;42.140;24.760;2023-04-30T00:04:03;99154.94;;;15.32;80.40
5753;BME280;2901;42.140;24.760;2023-04-30T00:06:29;99163.38;;;15.40;80.37
5753;BME280;2901;42.140;24.760;2023-04-30T00:08:55;99157.31;;;15.39;80.70
5753;BME280;2901;42.140;24.760;2023-04-30T00:11:20;99161.72;;;15.37;80.28
5753;BME280;2901;42.140;24.760;2023-04-30T00:13:46;99164.16;;;15.43;79.60
5753;BME280;2901;42.140;24.760;2023-04-30T00:16:11;99157.88;;;15.50;79.44
5753;BME280;2901;42.140;24.760;2023-04-30T00:18:37;99150.91;;;15.51;79.49
5753;BME280;2901;42.140;24.760;2023-04-30T00:21:03;99158.56;;;15.55;79.52
5753;BME280;2901;42.140;24.760;2023-04-30T00:23:28;99156.78;;;15.57;79.28
5753;BME280;2901;42.140;24.760;2023-04-30T00:25:53;99154.22;;;15.54;78.92
5753;BME280;2901;42.140;24.760;2023-04-30T00:28:19;99153.34;;;15.55;78.85
5753;BME280;2901;42.140;24.760;2023-04-30T00:30:44;99156.81;;;15.56;79.05
5753;BME280;2901;42.140;24.760;2023-04-30T00:33:10;99165.63;;;15.52;78.13
5753;BME280;2901;42.140;24.760;2023-04-30T00:35:35;99166.47;;;15.54;78.23
5753;BME280;2901;42.140;24.760;2023-04-30T00:38:00;99169.09;;;15.52;78.53
5753;BME280;2901;42.140;24.760;2023-04-30T00:40:26;99164.75;;;15.53;78.55
5753;BME280;2901;42.140;24.760;2023-04-30T00:42:51;99165.78;;;15.46;79.62
5753;BME280;2901;42.140;24.760;2023-04-30T00:45:20;99162.53;;;15.39;80.28
5753;BME280;2901;42.140;24.760;2023-04-30T00:47:46;99157.41;;;15.36;80.68
5753;BME280;2901;42.140;24.760;2023-04-30T00:50:12;99160.00;;;15.36;80.71
5753;BME280;2901;42.140;24.760;2023-04-30T00:52:42;99159.66;;;15.48;80.42
5753;BME280;2901;42.140;24.760;2023-04-30T00:55:12;99150.94;;;15.49;79.85
5753;BME280;2901;42.140;24.760;2023-04-30T00:57:38;99152.44;;;15.56;78.59
5753;BME280;2901;42.140;24.760;2023-04-30T01:00:05;99147.91;;;15.62;78.03
5753;BME280;2901;42.140;24.760;2023-04-30T01:02:39;99158.22;;;15.66;78.08
5753;BME280;2901;42.140;24.760;2023-04-30T01:05:05;99141.81;;;15.63;77.70
5753;BME280;2901;42.140;24.760;2023-04-30T01:07:32;99142.69;;;15.62;76.71
5753;BME280;2901;42.140;24.760;2023-04-30T01:09:58;99149.63;;;15.63;76.66
5753;BME280;2901;42.140;24.760;2023-04-30T01:15:10;99157.59;;;15.58;75.66
5753;BME280;2901;42.140;24.760;2023-04-30T01:18:03;99155.16;;;15.53;74.50
5753;BME280;2901;42.140;24.760;2023-04-30T01:20:30;99153.56;;;15.48;72.83
5753;BME280;2901;42.140;24.760;2023-04-30T01:28:09;99152.88;;;15.41;72.81
5753;BME280;2901;42.140;24.760;2023-04-30T01:30:37;99123.63;;;15.32;72.21
5753;BME280;2901;42.140;24.760;2023-04-30T01:33:04;99150.38;;;15.38;71.02
5753;BME280;2901;42.140;24.760;2023-04-30T01:35:50;99149.78;;;15.30;70.18
5753;BME280;2901;42.140;24.760;2023-04-30T01:47:32;99142.72;;;15.34;68.52
5753;BME280;2901;42.140;24.760;2023-04-30T01:50:19;99146.41;;;15.27;70.38
5753;BME280;2901;42.140;24.760;2023-04-30T01:52:58;99148.19;;;15.25;71.42
5753;BME280;2901;42.140;24.760;2023-04-30T01:55:37;99142.31;;;15.18;72.13
5753;BME280;2901;42.140;24.760;2023-04-30T01:58:09;99140.53;;;15.20;71.96
5753;BME280;2901;42.140;24.760;2023-04-30T02:00:36;99135.31;;;15.20;72.43
5753;BME280;2901;42.140;24.760;2023-04-30T02:03:02;99140.53;;;15.20;73.47
5753;BME280;2901;42.140;24.760;2023-04-30T02:05:27;99127.69;;;15.14;73.91
5753;BME280;2901;42.140;24.760;2023-04-30T02:07:53;99128.66;;;15.10;74.33
5753;BME280;2901;42.140;24.760;2023-04-30T02:10:22;99127.78;;;15.11;74.46
5753;BME280;2901;42.140;24.760;2023-04-30T02:12:48;99134.88;;;15.06;74.67
5753;BME280;2901;42.140;24.760;2023-04-30T02:15:14;99127.03;;;15.06;74.44
5753;BME280;2901;42.140;24.760;2023-04-30T02:17:39;99133.97;;;15.07;74.51
5753;BME280;2901;42.140;24.760;2023-04-30T02:20:06;99132.56;;;14.95;74.34
5753;BME280;2901;42.140;24.760;2023-04-30T02:22:32;99138.66;;;14.96;74.82
5753;BME280;2901;42.140;24.760;2023-04-30T02:24:57;99133.50;;;14.94;74.93
5753;BME280;2901;42.140;24.760;2023-04-30T02:27:24;99143.84;;;14.97;74.26
5753;BME280;2901;42.140;24.760;2023-04-30T02:29:52;99132.72;;;14.91;75.53
5753;BME280;2901;42.140;24.760;2023-04-30T02:32:18;99136.31;;;14.87;74.74
5753;BME280;2901;42.140;24.760;2023-04-30T02:34:44;99133.25;;;14.73;73.43
5753;BME280;2901;42.140;24.760;2023-04-30T02:37:10;99133.03;;;14.82;74.20
5753;BME280;2901;42.140;24.760;2023-04-30T02:39:35;99138.06;;;14.86;73.81
5753;BME280;2901;42.140;24.760;2023-04-30T02:42:01;99135.56;;;14.83;73.06
5753;BME280;2901;42.140;24.760;2023-04-30T02:44:27;99131.09;;;14.88;73.45
5753;BME280;2901;42.140;24.760;2023-04-30T02:46:53;99132.16;;;14.81;72.35
5753;BME280;2901;42.140;24.760;2023-04-30T02:49:18;99132.19;;;14.80;70.90
5753;BME280;2901;42.140;24.760;2023-04-30T02:51:43;99135.06;;;14.71;70.81
5753;BME280;2901;42.140;24.760;2023-04-30T02:54:09;99136.81;;;14.70;70.84
5753;BME280;2901;42.140;24.760;2023-04-30T02:56:34;99132.47;;;14.71;70.37
5753;BME280;2901;42.140;24.760;2023-04-30T02:59:00;99123.00;;;14.68;70.29
5753;BME280;2901;42.140;24.760;2023-04-30T03:01:26;99136.78;;;14.72;70.60
5753;BME280;2901;42.140;24.760;2023-04-30T03:03:51;99136.94;;;14.66;71.25
5753;BME280;2901;42.140;24.760;2023-04-30T03:06:16;99141.22;;;14.68;71.42
5753;BME280;2901;42.140;24.760;2023-04-30T03:08:42;99140.97;;;14.77;71.14
5753;BME280;2901;42.140;24.760;2023-04-30T03:11:07;99143.38;;;14.83;70.55
5753;BME280;2901;42.140;24.760;2023-04-30T03:13:32;99144.13;;;14.88;69.34
5753;BME280;2901;42.140;24.760;2023-04-30T03:15:58;99146.56;;;14.93;69.95
5753;BME280;2901;42.140;24.760;2023-04-30T03:18:25;99146.66;;;14.90;69.63
5753;BME280;2901;42.140;24.760;2023-04-30T03:20:51;99157.19;;;14.87;69.92
5753;BME280;2901;42.140;24.760;2023-04-30T03:23:16;99152.00;;;14.85;70.00
5753;BME280;2901;42.140;24.760;2023-04-30T03:25:41;99141.00;;;14.76;70.66
5753;BME280;2901;42.140;24.760;2023-04-30T03:28:07;99154.78;;;14.79;73.92
5753;BME280;2901;42.140;24.760;2023-04-30T03:30:32;99151.28;;;14.80;75.85
5753;BME280;2901;42.140;24.760;2023-04-30T03:32:58;99147.81;;;14.80;76.70
5753;BME280;2901;42.140;24.760;2023-04-30T03:35:23;99159.91;;;14.82;77.94
5753;BME280;2901;42.140;24.760;2023-04-30T03:37:48;99167.69;;;14.84;78.72
5753;BME280;2901;42.140;24.760;2023-04-30T03:40:14;99167.69;;;14.84;78.74
5753;BME280;2901;42.140;24.760;2023-04-30T03:42:39;99171.97;;;14.86;79.33
5753;BME280;2901;42.140;24.760;2023-04-30T03:45:05;99168.41;;;14.89;79.37
5753;BME280;2901;42.140;24.760;2023-04-30T03:47:31;99174.56;;;14.86;80.83
5753;BME280;2901;42.140;24.760;2023-04-30T03:49:57;99177.34;;;14.82;82.26
5753;BME280;2901;42.140;24.760;2023-04-30T03:52:22;99165.41;;;14.73;82.19
5753;BME280;2901;42.140;24.760;2023-04-30T03:54:48;99174.84;;;14.77;82.42
5753;BME280;2901;42.140;24.760;2023-04-30T03:57:13;99181.03;;;14.73;83.71
5753;BME280;2901;42.140;24.760;2023-04-30T03:59:39;99181.16;;;14.69;84.31
5753;BME280;2901;42.140;24.760;2023-04-30T04:02:05;99191.63;;;14.67;84.98
5753;BME280;2901;42.140;24.760;2023-04-30T04:04:32;99175.34;;;14.59;85.89
5753;BME280;2901;42.140;24.760;2023-04-30T04:06:57;99190.88;;;14.64;86.88
5753;BME280;2901;42.140;24.760;2023-04-30T04:09:23;99189.03;;;14.67;86.82
5753;BME280;2901;42.140;24.760;2023-04-30T04:11:48;99191.63;;;14.67;87.87
5753;BME280;2901;42.140;24.760;2023-04-30T04:14:14;99198.09;;;14.52;88.85
5753;BME280;2901;42.140;24.760;2023-04-30T04:16:40;99202.44;;;14.53;89.07
5753;BME280;2901;42.140;24.760;2023-04-30T04:19:06;99204.00;;;14.59;89.46
5753;BME280;2901;42.140;24.760;2023-04-30T04:21:31;99207.81;;;14.47;89.62
5753;BME280;2901;42.140;24.760;2023-04-30T04:23:57;99207.00;;;14.45;90.04
5753;BME280;2901;42.140;24.760;2023-04-30T04:26:23;99207.94;;;14.43;90.62
5753;BME280;2901;42.140;24.760;2023-04-30T04:28:50;99209.66;;;14.42;90.84
5753;BME280;2901;42.140;24.760;2023-04-30T04:31:16;99200.78;;;14.51;90.89
5753;BME280;2901;42.140;24.760;2023-04-30T04:33:43;99210.84;;;14.63;90.67
5753;BME280;2901;42.140;24.760;2023-04-30T04:36:08;99211.63;;;14.67;90.54
5753;BME280;2901;42.140;24.760;2023-04-30T04:38:34;99199.34;;;14.72;90.17
5753;BME280;2901;42.140;24.760;2023-04-30T04:40:59;99195.72;;;14.76;89.55
5753;BME280;2901;42.140;24.760;2023-04-30T04:43:25;99200.59;;;14.88;89.89
5753;BME280;2901;42.140;24.760;2023-04-30T04:45:50;99203.06;;;14.92;88.87
5753;BME280;2901;42.140;24.760;2023-04-30T04:48:16;99200.94;;;15.05;87.77
5753;BME280;2901;42.140;24.760;2023-04-30T04:50:41;99200.81;;;15.11;87.68
5753;BME280;2901;42.140;24.760;2023-04-30T04:53:07;99201.59;;;15.13;86.75
5753;BME280;2901;42.140;24.760;2023-04-30T04:55:32;99209.88;;;15.27;86.56
5753;BME280;2901;42.140;24.760;2023-04-30T04:57:58;99210.72;;;15.28;86.96
5753;BME280;2901;42.140;24.760;2023-04-30T05:00:23;99210.66;;;15.29;87.42
5753;BME280;2901;42.140;24.760;2023-04-30T05:02:50;99213.25;;;15.31;87.17
5753;BME280;2901;42.140;24.760;2023-04-30T05:05:15;99206.00;;;15.40;87.55
5753;BME280;2901;42.140;24.760;2023-04-30T05:07:41;99217.72;;;15.55;86.83
5753;BME280;2901;42.140;24.760;2023-04-30T05:10:07;99219.41;;;15.57;85.57
5753;BME280;2901;42.140;24.760;2023-04-30T05:12:32;99220.00;;;15.66;85.65
5753;BME280;2901;42.140;24.760;2023-04-30T05:14:57;99219.13;;;15.67;85.71
5753;BME280;2901;42.140;24.760;2023-04-30T05:17:23;99192.28;;;15.62;85.50
5753;BME280;2901;42.140;24.760;2023-04-30T05:19:48;99219.69;;;15.76;85.49
5753;BME280;2901;42.140;24.760;2023-04-30T05:22:15;99217.94;;;15.77;83.28
5753;BME280;2901;42.140;24.760;2023-04-30T05:24:40;99224.84;;;15.78;83.28
5753;BME280;2901;42.140;24.760;2023-04-30T05:27:06;99225.38;;;15.87;84.24
5753;BME280;2901;42.140;24.760;2023-04-30T05:29:32;99228.28;;;16.06;84.21
5753;BME280;2901;42.140;24.760;2023-04-30T05:31:57;99220.91;;;16.17;84.06
5753;BME280;2901;42.140;24.760;2023-04-30T05:34:22;99215.53;;;16.23;83.92
5753;BME280;2901;42.140;24.760;2023-04-30T05:36:48;99221.09;;;16.13;80.07
5753;BME280;2901;42.140;24.760;2023-04-30T05:39:13;99221.94;;;16.13;79.61
5753;BME280;2901;42.140;24.760;2023-04-30T05:41:38;99212.41;;;16.12;80.50
5753;BME280;2901;42.140;24.760;2023-04-30T05:44:04;99229.78;;;16.13;79.83
5753;BME280;2901;42.140;24.760;2023-04-30T05:46:31;99229.88;;;15.84;80.74
5753;BME280;2901;42.140;24.760;2023-04-30T05:48:56;99222.09;;;15.82;80.46
5753;BME280;2901;42.140;24.760;2023-04-30T05:51:22;99218.53;;;15.85;81.59
5753;BME280;2901;42.140;24.760;2023-04-30T05:53:47;99226.25;;;15.88;79.00
5753;BME280;2901;42.140;24.760;2023-04-30T05:56:13;99227.06;;;15.90;79.09
5753;BME280;2901;42.140;24.760;2023-04-30T05:58:38;99220.22;;;15.86;77.70
5753;BME280;2901;42.140;24.760;2023-04-30T06:01:04;99225.47;;;15.86;77.90
5753;BME280;2901;42.140;24.760;2023-04-30T06:03:30;99231.38;;;15.91;77.96
5753;BME280;2901;42.140;24.760;2023-04-30T06:05:55;99235.69;;;15.92;79.03
5753;BME280;2901;42.140;24.760;2023-04-30T06:08:21;99232.75;;;16.02;79.52
5753;BME280;2901;42.140;24.760;2023-04-30T06:10:47;99234.19;;;16.11;76.06
5753;BME280;2901;42.140;24.760;2023-04-30T06:13:13;99230.72;;;16.10;75.75
5753;BME280;2901;42.140;24.760;2023-04-30T06:15:39;99229.78;;;16.13;74.13
5753;BME280;2901;42.140;24.760;2023-04-30T06:18:05;99234.50;;;16.28;75.56
5753;BME280;2901;42.140;24.760;2023-04-30T06:20:31;99229.88;;;16.36;76.63
5753;BME280;2901;42.140;24.760;2023-04-30T06:22:56;99230.78;;;16.35;77.31
5753;BME280;2901;42.140;24.760;2023-04-30T06:25:22;99229.81;;;16.38;78.34
5753;BME280;2901;42.140;24.760;2023-04-30T06:27:47;99225.44;;;16.38;78.55
5753;BME280;2901;42.140;24.760;2023-04-30T06:30:12;99229.59;;;16.44;78.32
5753;BME280;2901;42.140;24.760;2023-04-30T06:32:38;99232.81;;;16.52;78.57
5753;BME280;2901;42.140;24.760;2023-04-30T06:35:04;99229.16;;;16.57;78.85
5753;BME280;2901;42.140;24.760;2023-04-30T06:37:29;99228.34;;;16.55;78.21
5753;BME280;2901;42.140;24.760;2023-04-30T06:40:00;99224.00;;;16.56;79.31
5753;BME280;2901;42.140;24.760;2023-04-30T06:42:25;99224.63;;;16.63;78.50
5753;BME280;2901;42.140;24.760;2023-04-30T06:44:50;99224.06;;;16.53;78.32
5753;BME280;2901;42.140;24.760;2023-04-30T06:47:16;99226.81;;;16.48;79.24
5753;BME280;2901;42.140;24.760;2023-04-30T06:49:41;99219.66;;;16.55;79.65
5753;BME280;2901;42.140;24.760;2023-04-30T06:52:06;99221.91;;;16.66;78.87
5753;BME280;2901;42.140;24.760;2023-04-30T06:54:32;99211.78;;;16.80;78.72
5753;BME280;2901;42.140;24.760;2023-04-30T06:56:57;99214.38;;;17.04;77.68
5753;BME280;2901;42.140;24.760;2023-04-30T06:59:23;99214.63;;;17.20;77.46
5753;BME280;2901;42.140;24.760;2023-04-30T07:01:48;99214.97;;;17.34;74.70
5753;BME280;2901;42.140;24.760;2023-04-30T07:04:13;99209.38;;;17.43;74.99
5753;BME280;2901;42.140;24.760;2023-04-30T07:06:39;99206.09;;;17.38;73.72
5753;BME280;2901;42.140;24.760;2023-04-30T07:09:04;99209.38;;;17.43;73.66
5753;BME280;2901;42.140;24.760;2023-04-30T07:11:30;99198.66;;;17.49;74.47
5753;BME280;2901;42.140;24.760;2023-04-30T07:13:56;99211.69;;;17.51;74.05
5753;BME280;2901;42.140;24.760;2023-04-30T07:16:24;99206.63;;;17.46;74.63
5753;BME280;2901;42.140;24.760;2023-04-30T07:18:50;99205.16;;;17.62;73.96
5753;BME280;2901;42.140;24.760;2023-04-30T07:21:16;99202.84;;;17.77;73.22
5753;BME280;2901;42.140;24.760;2023-04-30T07:23:41;99202.13;;;17.73;71.18
5753;BME280;2901;42.140;24.760;2023-04-30T07:26:08;99206.63;;;17.70;70.96
5753;BME280;2901;42.140;24.760;2023-04-30T07:28:33;99199.25;;;17.79;71.18
5753;BME280;2901;42.140;24.760;2023-04-30T07:30:59;99205.56;;;17.95;68.61
5753;BME280;2901;42.140;24.760;2023-04-30T07:33:24;99191.84;;;18.10;69.06
5753;BME280;2901;42.140;24.760;2023-04-30T07:35:50;99196.56;;;18.23;67.53
5753;BME280;2901;42.140;24.760;2023-04-30T07:38:15;99185.22;;;18.22;68.38
5753;BME280;2901;42.140;24.760;2023-04-30T07:40:43;99197.56;;;18.40;67.93
5753;BME280;2901;42.140;24.760;2023-04-30T07:43:08;99195.72;;;18.42;67.25
5753;BME280;2901;42.140;24.760;2023-04-30T07:45:35;99194.44;;;18.52;67.69
5753;BME280;2901;42.140;24.760;2023-04-30T07:48:01;99198.75;;;18.74;66.40
5753;BME280;2901;42.140;24.760;2023-04-30T07:50:26;99194.00;;;18.82;65.99
5753;BME280;2901;42.140;24.760;2023-04-30T07:52:53;99193.28;;;18.78;65.23
5753;BME280;2901;42.140;24.760;2023-04-30T07:55:19;99198.59;;;18.77;63.64
5753;BME280;2901;42.140;24.760;2023-04-30T07:57:44;99194.97;;;18.79;61.96
5753;BME280;2901;42.140;24.760;2023-04-30T08:00:10;99195.44;;;18.89;62.04
5753;BME280;2901;42.140;24.760;2023-04-30T08:02:35;99193.66;;;18.89;62.32
5753;BME280;2901;42.140;24.760;2023-04-30T08:05:01;99191.03;;;18.89;61.53
5753;BME280;2901;42.140;24.760;2023-04-30T08:07:28;99192.22;;;18.82;61.18
5753;BME280;2901;42.140;24.760;2023-04-30T08:09:53;99185.81;;;18.69;61.24
5753;BME280;2901;42.140;24.760;2023-04-30T08:12:18;99179.59;;;18.90;61.66
5753;BME280;2901;42.140;24.760;2023-04-30T08:14:44;99194.38;;;19.11;61.60
5753;BME280;2901;42.140;24.760;2023-04-30T08:17:09;99183.88;;;19.30;57.48
5753;BME280;2901;42.140;24.760;2023-04-30T08:19:34;99173.91;;;19.37;57.68
5753;BME280;2901;42.140;24.760;2023-04-30T08:22:00;99186.22;;;19.36;55.08
5753;BME280;2901;42.140;24.760;2023-04-30T08:24:25;99181.03;;;19.35;55.92
5753;BME280;2901;42.140;24.760;2023-04-30T08:26:51;99168.25;;;19.27;54.44
5753;BME280;2901;42.140;24.760;2023-04-30T08:29:16;99177.22;;;19.42;55.14
5753;BME280;2901;42.140;24.760;2023-04-30T08:31:41;99172.78;;;19.61;53.36
5753;BME280;2901;42.140;24.760;2023-04-30T08:34:07;99174.13;;;19.69;52.43
5753;BME280;2901;42.140;24.760;2023-04-30T08:36:32;99171.13;;;19.77;52.94
5753;BME280;2901;42.140;24.760;2023-04-30T08:38:58;99163.56;;;19.88;53.26
5753;BME280;2901;42.140;24.760;2023-04-30T08:41:25;99178.09;;;19.78;51.14
5753;BME280;2901;42.140;24.760;2023-04-30T08:43:52;99162.00;;;19.84;52.43
5753;BME280;2901;42.140;24.760;2023-04-30T08:46:19;99164.19;;;20.10;53.58
5753;BME280;2901;42.140;24.760;2023-04-30T08:48:46;99166.44;;;20.18;52.06
5753;BME280;2901;42.140;24.760;2023-04-30T08:51:14;99169.94;;;20.18;51.82
5753;BME280;2901;42.140;24.760;2023-04-30T08:53:41;99162.97;;;20.17;52.90
5753;BME280;2901;42.140;24.760;2023-04-30T08:56:09;99166.53;;;20.34;51.13
5753;BME280;2901;42.140;24.760;2023-04-30T08:58:35;99149.09;;;20.48;50.73
5753;BME280;2901;42.140;24.760;2023-04-30T09:01:02;99161.22;;;20.68;50.13
5753;BME280;2901;42.140;24.760;2023-04-30T09:03:27;99152.84;;;20.77;49.31
5753;BME280;2901;42.140;24.760;2023-04-30T09:05:54;99156.59;;;20.89;45.62
5753;BME280;2901;42.140;24.760;2023-04-30T09:08:40;99155.91;;;20.85;42.54
5753;BME280;2901;42.140;24.760;2023-04-30T09:11:22;99143.16;;;20.78;42.90
5753;BME280;2901;42.140;24.760;2023-04-30T09:13:50;99150.63;;;20.85;43.32
5753;BME280;2901;42.140;24.760;2023-04-30T09:16:22;99148.09;;;20.84;44.11
5753;BME280;2901;42.140;24.760;2023-04-30T09:18:48;99145.03;;;20.91;44.21
5753;BME280;2901;42.140;24.760;2023-04-30T09:21:14;99154.00;;;20.71;44.90
5753;BME280;2901;42.140;24.760;2023-04-30T09:23:59;99140.84;;;20.71;44.01
5753;BME280;2901;42.140;24.760;2023-04-30T09:26:30;99144.38;;;20.88;44.57
5753;BME280;2901;42.140;24.760;2023-04-30T09:28:57;99141.75;;;21.03;43.16
5753;BME280;2901;42.140;24.760;2023-04-30T09:31:23;99141.78;;;21.19;41.50
5753;BME280;2901;42.140;24.760;2023-04-30T09:33:51;99131.69;;;21.27;40.94
5753;BME280;2901;42.140;24.760;2023-04-30T09:36:16;99132.19;;;21.49;40.19
5753;BME280;2901;42.140;24.760;2023-04-30T09:38:42;99130.25;;;21.67;40.41
5753;BME280;2901;42.140;24.760;2023-04-30T09:41:26;99105.63;;;21.68;40.04
5753;BME280;2901;42.140;24.760;2023-04-30T09:43:55;99121.38;;;21.99;39.75
5753;BME280;2901;42.140;24.760;2023-04-30T09:46:29;99112.66;;;22.27;39.27
5753;BME280;2901;42.140;24.760;2023-04-30T09:49:00;99109.28;;;22.53;37.69
5753;BME280;2901;42.140;24.760;2023-04-30T09:51:26;99106.94;;;22.63;37.29
5753;BME280;2901;42.140;24.760;2023-04-30T09:53:52;99114.03;;;22.77;37.79
5753;BME280;2901;42.140;24.760;2023-04-30T09:56:20;99105.06;;;22.79;37.30
5753;BME280;2901;42.140;24.760;2023-04-30T09:58:55;99100.88;;;23.03;36.79
5753;BME280;2901;42.140;24.760;2023-04-30T10:01:25;99099.09;;;23.04;35.94
5753;BME280;2901;42.140;24.760;2023-04-30T10:03:51;99087.88;;;23.00;36.36
5753;BME280;2901;42.140;24.760;2023-04-30T10:06:17;99096.03;;;23.24;36.82
5753;BME280;2901;42.140;24.760;2023-04-30T10:08:55;99092.34;;;23.41;35.88
5753;BME280;2901;42.140;24.760;2023-04-30T10:11:22;99084.25;;;23.15;35.67
5753;BME280;2901;42.140;24.760;2023-04-30T10:13:59;99105.84;;;23.22;36.57
5753;BME280;2901;42.140;24.760;2023-04-30T10:18:59;99093.84;;;22.90;36.16
5753;BME280;2901;42.140;24.760;2023-04-30T10:21:27;99073.94;;;22.98;36.52
5753;BME280;2901;42.140;24.760;2023-04-30T10:23:54;99083.34;;;23.43;36.11
5753;BME280;2901;42.140;24.760;2023-04-30T10:26:20;99086.19;;;23.67;35.04
5753;BME280;2901;42.140;24.760;2023-04-30T10:28:47;99075.91;;;23.62;35.10
5753;BME280;2901;42.140;24.760;2023-04-30T10:31:15;99074.16;;;23.88;35.62
5753;BME280;2901;42.140;24.760;2023-04-30T10:33:58;99071.84;;;23.96;35.80
5753;BME280;2901;42.140;24.760;2023-04-30T10:36:37;99082.44;;;23.57;35.85
5753;BME280;2901;42.140;24.760;2023-04-30T10:39:05;99081.81;;;23.39;36.28
5753;BME280;2901;42.140;24.760;2023-04-30T10:41:31;99081.69;;;23.28;36.04
5753;BME280;2901;42.140;24.760;2023-04-30T10:43:57;99071.69;;;23.19;36.51
5753;BME280;2901;42.140;24.760;2023-04-30T10:46:25;99077.00;;;23.46;35.98
5753;BME280;2901;42.140;24.760;2023-04-30T10:48:52;99072.94;;;23.54;36.31
5753;BME280;2901;42.140;24.760;2023-04-30T10:51:19;99070.81;;;23.59;36.40
5753;BME280;2901;42.140;24.760;2023-04-30T10:53:48;99072.03;;;23.41;36.67
5753;BME280;2901;42.140;24.760;2023-04-30T10:56:28;99056.19;;;23.27;36.90
5753;BME280;2901;42.140;24.760;2023-04-30T10:59:00;99064.16;;;23.13;37.42
5753;BME280;2901;42.140;24.760;2023-04-30T11:01:29;99078.22;;;23.13;36.98
5753;BME280;2901;42.140;24.760;2023-04-30T11:04:05;99072.56;;;23.05;38.52
5753;BME280;2901;42.140;24.760;2023-04-30T11:09:20;99062.66;;;23.09;38.57
5753;BME280;2901;42.140;24.760;2023-04-30T11:12:01;99058.44;;;23.33;37.65
5753;BME280;2901;42.140;24.760;2023-04-30T11:14:30;99053.97;;;23.48;36.88
5753;BME280;2901;42.140;24.760;2023-04-30T11:16:58;99059.19;;;23.62;37.60
5753;BME280;2901;42.140;24.760;2023-04-30T11:19:23;99054.84;;;23.34;36.99
5753;BME280;2901;42.140;24.760;2023-04-30T11:27:26;99052.94;;;23.09;38.02
5753;BME280;2901;42.140;24.760;2023-04-30T11:29:53;99041.22;;;22.87;38.09
5753;BME280;2901;42.140;24.760;2023-04-30T11:32:20;99039.91;;;22.80;38.46
5753;BME280;2901;42.140;24.760;2023-04-30T11:34:46;99036.34;;;22.81;38.57
5753;BME280;2901;42.140;24.760;2023-04-30T11:37:17;99034.59;;;22.94;38.80
5753;BME280;2901;42.140;24.760;2023-04-30T11:39:43;99025.22;;;23.29;37.56
5753;BME280;2901;42.140;24.760;2023-04-30T11:42:08;99024.22;;;23.84;37.06
5753;BME280;2901;42.140;24.760;2023-04-30T11:44:34;99018.94;;;24.34;35.11
5753;BME280;2901;42.140;24.760;2023-04-30T11:47:00;99027.84;;;24.46;34.58
5753;BME280;2901;42.140;24.760;2023-04-30T11:49:26;99027.06;;;24.44;35.10
5753;BME280;2901;42.140;24.760;2023-04-30T11:51:51;99028.28;;;24.40;35.33
5753;BME280;2901;42.140;24.760;2023-04-30T11:54:17;99023.03;;;24.63;35.18
5753;BME280;2901;42.140;24.760;2023-04-30T11:56:46;99024.44;;;24.56;34.00
5753;BME280;2901;42.140;24.760;2023-04-30T11:59:12;99017.88;;;24.24;34.08
5753;BME280;2901;42.140;24.760;2023-04-30T12:01:38;99029.31;;;23.99;34.64
5753;BME280;2901;42.140;24.760;2023-04-30T12:04:04;99020.22;;;23.91;35.64
5753;BME280;2901;42.140;24.760;2023-04-30T12:06:31;99011.22;;;23.93;35.75
5753;BME280;2901;42.140;24.760;2023-04-30T12:09:00;99007.28;;;23.73;35.76
5753;BME280;2901;42.140;24.760;2023-04-30T12:11:29;99004.94;;;23.69;35.70
5753;BME280;2901;42.140;24.760;2023-04-30T12:13:59;99001.03;;;23.74;35.88
5753;BME280;2901;42.140;24.760;2023-04-30T12:16:27;99002.09;;;23.85;35.69
5753;BME280;2901;42.140;24.760;2023-04-30T12:18:52;98990.88;;;23.81;35.99
5753;BME280;2901;42.140;24.760;2023-04-30T12:21:20;98995.66;;;23.76;36.14
5753;BME280;2901;42.140;24.760;2023-04-30T12:23:46;98980.94;;;23.59;36.61
5753;BME280;2901;42.140;24.760;2023-04-30T12:26:12;98992.22;;;23.49;36.38
5753;BME280;2901;42.140;24.760;2023-04-30T12:28:37;98995.44;;;23.27;37.05
5753;BME280;2901;42.140;24.760;2023-04-30T12:31:03;98998.63;;;23.05;38.54
5753;BME280;2901;42.140;24.760;2023-04-30T12:33:29;99007.59;;;22.62;41.35
5753;BME280;2901;42.140;24.760;2023-04-30T12:35:55;99038.00;;;21.97;48.20
5753;BME280;2901;42.140;24.760;2023-04-30T12:38:22;99052.16;;;20.74;57.18
5753;BME280;2901;42.140;24.760;2023-04-30T12:40:48;99076.22;;;19.49;65.15
5753;BME280;2901;42.140;24.760;2023-04-30T12:43:15;99080.75;;;18.91;76.50
5753;BME280;2901;42.140;24.760;2023-04-30T12:45:49;99081.41;;;18.38;79.21
5753;BME280;2901;42.140;24.760;2023-04-30T12:48:26;99076.88;;;18.42;82.53
5753;BME280;2901;42.140;24.760;2023-04-30T12:50:59;99072.19;;;18.30;84.35
5753;BME280;2901;42.140;24.760;2023-04-30T12:53:26;99052.97;;;18.10;86.66
5753;BME280;2901;42.140;24.760;2023-04-30T12:56:10;99041.31;;;18.36;92.72
5753;BME280;2901;42.140;24.760;2023-04-30T12:58:37;99017.88;;;18.52;96.18
5753;BME280;2901;42.140;24.760;2023-04-30T13:01:02;99014.50;;;18.50;93.70
5753;BME280;2901;42.140;24.760;2023-04-30T13:03:28;98997.63;;;18.55;91.81
5753;BME280;2901;42.140;24.760;2023-04-30T13:05:53;98998.25;;;18.60;93.27
5753;BME280;2901;42.140;24.760;2023-04-30T13:08:20;98998.81;;;18.67;94.66
5753;BME280;2901;42.140;24.760;2023-04-30T13:10:46;98998.53;;;18.73;95.61
5753;BME280;2901;42.140;24.760;2023-04-30T13:13:14;99008.31;;;18.70;95.61
5753;BME280;2901;42.140;24.760;2023-04-30T13:15:39;99017.75;;;18.74;95.38
5753;BME280;2901;42.140;24.760;2023-04-30T13:18:06;99006.59;;;18.69;97.00
5753;BME280;2901;42.140;24.760;2023-04-30T13:20:36;99013.75;;;18.46;97.32
5753;BME280;2901;42.140;24.760;2023-04-30T13:23:02;99018.91;;;18.29;97.02
5753;BME280;2901;42.140;24.760;2023-04-30T13:25:29;99026.06;;;18.26;100.00
5753;BME280;2901;42.140;24.760;2023-04-30T13:27:54;99027.22;;;18.00;97.35
5753;BME280;2901;42.140;24.760;2023-04-30T13:30:20;99033.38;;;17.99;100.00
5753;BME280;2901;42.140;24.760;2023-04-30T13:32:45;99038.09;;;17.71;97.14
5753;BME280;2901;42.140;24.760;2023-04-30T13:35:11;99050.13;;;17.54;96.04
5753;BME280;2901;42.140;24.760;2023-04-30T13:37:37;99066.25;;;17.66;100.00